sensor_id;sensor_type;location;lat;lon;timestamp;P1;durP1;ratioP1;P2;durP2;ratioP2
43628;SDS011;56545;48.224;11.678;2022-09-19T00:01:11;4.85;;;1.00;;
43628;SDS011;56545;48.224;11.678;2022-09-19T00:03:42;3.83;;;0.90;;
43628;SDS011;56545;48.224;11.678;2022-09-19T00:06:11;4.35;;;0.90;;
43628;SDS011;56545;48.224;11.678;2022-09-19T00:08:39;2.58;;;0.82;;
43628;SDS011;56545;48.224;11.678;2022-09-19T00:11:07;3.83;;;0.88;;
43628;SDS011;56545;48.224;11.678;2022-09-19T00:13:35;3.60;;;1.02;;
43628;SDS011;56545;48.224;11.678;2022-09-19T00:16:03;1.92;;;0.70;;
43628;SDS011;56545;48.224;11.678;2022-09-19T00:18:29;2.47;;;0.95;;
43628;SDS011;56545;48.224;11.678;2022-09-19T00:20:56;2.42;;;0.80;;
43628;SDS011;56545;48.224;11.678;2022-09-19T00:23:22;4.60;;;1.10;;
43628;SDS011;56545;48.224;11.678;2022-09-19T00:26:08;2.95;;;1.02;;
43628;SDS011;56545;48.224;11.678;2022-09-19T00:28:36;5.55;;;1.05;;
43628;SDS011;56545;48.224;11.678;2022-09-19T00:31:03;4.55;;;1.02;;
43628;SDS011;56545;48.224;11.678;2022-09-19T00:33:30;2.65;;;1.00;;
43628;SDS011;56545;48.224;11.678;2022-09-19T00:35:58;2.63;;;0.85;;
43628;SDS011;56545;48.224;11.678;2022-09-19T00:38:25;2.75;;;0.90;;
43628;SDS011;56545;48.224;11.678;2022-09-19T00:40:53;4.43;;;0.70;;
43628;SDS011;56545;48.224;11.678;2022-09-19T00:43:20;3.53;;;0.70;;
43628;SDS011;56545;48.224;11.678;2022-09-19T00:45:47;1.95;;;0.60;;
43628;SDS011;56545;48.224;11.678;2022-09-19T00:48:13;3.50;;;0.80;;
43628;SDS011;56545;48.224;11.678;2022-09-19T00:50:42;2.33;;;0.68;;
43628;SDS011;56545;48.224;11.678;2022-09-19T00:53:13;2.38;;;0.60;;
43628;SDS011;56545;48.224;11.678;2022-09-19T00:55:44;3.50;;;0.70;;
43628;SDS011;56545;48.224;11.678;2022-09-19T01:00:51;4.40;;;0.90;;
43628;SDS011;56545;48.224;11.678;2022-09-19T01:03:17;1.75;;;0.73;;
43628;SDS011;56545;48.224;11.678;2022-09-19T01:08:39;2.97;;;0.70;;
43628;SDS011;56545;48.224;11.678;2022-09-19T01:11:34;2.65;;;0.40;;
43628;SDS011;56545;48.224;11.678;2022-09-19T01:16:33;0.88;;;0.38;;
43628;SDS011;56545;48.224;11.678;2022-09-19T01:19:29;0.22;;;0.20;;
43628;SDS011;56545;48.224;11.678;2022-09-19T01:25:29;1.17;;;0.25;;
43628;SDS011;56545;48.224;11.678;2022-09-19T01:28:05;0.60;;;0.10;;
43628;SDS011;56545;48.224;11.678;2022-09-19T01:30:45;1.98;;;0.20;;
43628;SDS011;56545;48.224;11.678;2022-09-19T01:33:39;0.10;;;0.00;;
43628;SDS011;56545;48.224;11.678;2022-09-19T01:36:07;0.28;;;0.10;;
43628;SDS011;56545;48.224;11.678;2022-09-19T01:38:35;0.22;;;0.10;;
43628;SDS011;56545;48.224;11.678;2022-09-19T01:41:04;0.10;;;0.10;;
43628;SDS011;56545;48.224;11.678;2022-09-19T01:43:33;0.20;;;0.10;;
43628;SDS011;56545;48.224;11.678;2022-09-19T01:46:01;0.17;;;0.10;;
43628;SDS011;56545;48.224;11.678;2022-09-19T01:48:43;0.28;;;0.10;;
43628;SDS011;56545;48.224;11.678;2022-09-19T01:51:27;0.30;;;0.10;;
43628;SDS011;56545;48.224;11.678;2022-09-19T01:54:06;0.40;;;0.10;;
43628;SDS011;56545;48.224;11.678;2022-09-19T01:57:05;0.60;;;0.10;;
43628;SDS011;56545;48.224;11.678;2022-09-19T02:02:22;0.10;;;0.03;;
43628;SDS011;56545;48.224;11.678;2022-09-19T02:11:13;1.95;;;0.10;;
43628;SDS011;56545;48.224;11.678;2022-09-19T02:13:49;0.20;;;0.10;;
43628;SDS011;56545;48.224;11.678;2022-09-19T02:16:26;0.45;;;0.10;;
43628;SDS011;56545;48.224;11.678;2022-09-19T02:19:10;0.93;;;0.10;;
43628;SDS011;56545;48.224;11.678;2022-09-19T02:21:46;0.85;;;0.10;;
43628;SDS011;56545;48.224;11.678;2022-09-19T02:24:20;0.20;;;0.00;;
43628;SDS011;56545;48.224;11.678;2022-09-19T02:26:51;0.10;;;0.00;;
43628;SDS011;56545;48.224;11.678;2022-09-19T02:29:19;0.63;;;0.30;;
43628;SDS011;56545;48.224;11.678;2022-09-19T02:31:50;0.00;;;0.00;;
43628;SDS011;56545;48.224;11.678;2022-09-19T02:34:16;1.30;;;0.10;;
43628;SDS011;56545;48.224;11.678;2022-09-19T02:36:53;0.35;;;0.10;;
43628;SDS011;56545;48.224;11.678;2022-09-19T02:39:47;2.38;;;0.10;;
43628;SDS011;56545;48.224;11.678;2022-09-19T02:42:21;0.28;;;0.17;;
43628;SDS011;56545;48.224;11.678;2022-09-19T02:45:07;0.65;;;0.20;;
43628;SDS011;56545;48.224;11.678;2022-09-19T02:47:42;1.98;;;0.40;;
43628;SDS011;56545;48.224;11.678;2022-09-19T02:50:18;0.75;;;0.20;;
43628;SDS011;56545;48.224;11.678;2022-09-19T02:53:08;0.63;;;0.25;;
43628;SDS011;56545;48.224;11.678;2022-09-19T02:55:39;0.75;;;0.20;;
43628;SDS011;56545;48.224;11.678;2022-09-19T02:58:12;0.50;;;0.20;;
43628;SDS011;56545;48.224;11.678;2022-09-19T03:00:41;0.90;;;0.15;;
43628;SDS011;56545;48.224;11.678;2022-09-19T03:03:34;0.10;;;0.10;;
43628;SDS011;56545;48.224;11.678;2022-09-19T03:06:24;1.35;;;0.17;;
43628;SDS011;56545;48.224;11.678;2022-09-19T03:08:54;0.15;;;0.15;;
43628;SDS011;56545;48.224;11.678;2022-09-19T03:11:21;0.95;;;0.20;;
43628;SDS011;56545;48.224;11.678;2022-09-19T03:13:51;1.60;;;0.20;;
43628;SDS011;56545;48.224;11.678;2022-09-19T03:16:27;0.88;;;0.30;;
43628;SDS011;56545;48.224;11.678;2022-09-19T03:18:59;0.65;;;0.20;;
43628;SDS011;56545;48.224;11.678;2022-09-19T03:21:28;0.38;;;0.20;;
43628;SDS011;56545;48.224;11.678;2022-09-19T03:23:55;1.52;;;0.28;;
43628;SDS011;56545;48.224;11.678;2022-09-19T03:26:24;0.32;;;0.20;;
43628;SDS011;56545;48.224;11.678;2022-09-19T03:28:56;1.42;;;0.47;;
43628;SDS011;56545;48.224;11.678;2022-09-19T03:31:22;1.98;;;0.30;;
43628;SDS011;56545;48.224;11.678;2022-09-19T03:33:49;3.05;;;0.30;;
43628;SDS011;56545;48.224;11.678;2022-09-19T03:36:16;0.98;;;0.28;;
43628;SDS011;56545;48.224;11.678;2022-09-19T03:38:43;2.00;;;0.47;;
43628;SDS011;56545;48.224;11.678;2022-09-19T03:41:12;4.35;;;0.40;;
43628;SDS011;56545;48.224;11.678;2022-09-19T03:43:40;0.75;;;0.32;;
43628;SDS011;56545;48.224;11.678;2022-09-19T03:46:09;1.10;;;0.50;;
43628;SDS011;56545;48.224;11.678;2022-09-19T03:48:37;2.92;;;0.40;;
43628;SDS011;56545;48.224;11.678;2022-09-19T03:51:05;2.20;;;0.68;;
43628;SDS011;56545;48.224;11.678;2022-09-19T03:53:31;1.25;;;0.38;;
43628;SDS011;56545;48.224;11.678;2022-09-19T03:55:58;1.77;;;0.50;;
43628;SDS011;56545;48.224;11.678;2022-09-19T03:58:25;1.38;;;0.55;;
43628;SDS011;56545;48.224;11.678;2022-09-19T04:00:51;2.97;;;0.60;;
43628;SDS011;56545;48.224;11.678;2022-09-19T04:03:18;3.03;;;0.40;;
43628;SDS011;56545;48.224;11.678;2022-09-19T04:05:48;1.77;;;0.47;;
43628;SDS011;56545;48.224;11.678;2022-09-19T04:08:14;1.80;;;0.50;;
43628;SDS011;56545;48.224;11.678;2022-09-19T04:10:39;3.47;;;0.52;;
43628;SDS011;56545;48.224;11.678;2022-09-19T04:13:07;2.88;;;0.45;;
43628;SDS011;56545;48.224;11.678;2022-09-19T04:15:34;2.95;;;0.47;;
43628;SDS011;56545;48.224;11.678;2022-09-19T04:18:00;4.05;;;0.68;;
43628;SDS011;56545;48.224;11.678;2022-09-19T04:20:28;3.92;;;0.65;;
43628;SDS011;56545;48.224;11.678;2022-09-19T04:22:55;5.32;;;0.57;;
43628;SDS011;56545;48.224;11.678;2022-09-19T04:25:28;3.17;;;0.50;;
43628;SDS011;56545;48.224;11.678;2022-09-19T04:27:58;5.32;;;0.55;;
43628;SDS011;56545;48.224;11.678;2022-09-19T04:30:25;4.28;;;0.70;;
43628;SDS011;56545;48.224;11.678;2022-09-19T04:32:51;3.45;;;0.50;;
43628;SDS011;56545;48.224;11.678;2022-09-19T04:35:17;5.55;;;0.60;;
43628;SDS011;56545;48.224;11.678;2022-09-19T04:37:44;5.65;;;0.70;;
43628;SDS011;56545;48.224;11.678;2022-09-19T04:40:10;6.00;;;1.10;;
43628;SDS011;56545;48.224;11.678;2022-09-19T04:42:36;4.53;;;0.63;;
43628;SDS011;56545;48.224;11.678;2022-09-19T04:45:03;5.45;;;0.60;;
43628;SDS011;56545;48.224;11.678;2022-09-19T04:47:29;6.50;;;0.65;;
43628;SDS011;56545;48.224;11.678;2022-09-19T04:49:58;4.57;;;0.70;;
43628;SDS011;56545;48.224;11.678;2022-09-19T04:52:24;3.22;;;0.60;;
43628;SDS011;56545;48.224;11.678;2022-09-19T04:54:51;4.43;;;0.60;;
43628;SDS011;56545;48.224;11.678;2022-09-19T04:57:19;7.18;;;0.88;;
43628;SDS011;56545;48.224;11.678;2022-09-19T04:59:45;2.30;;;0.52;;
43628;SDS011;56545;48.224;11.678;2022-09-19T05:02:11;2.38;;;0.50;;
43628;SDS011;56545;48.224;11.678;2022-09-19T05:04:38;3.03;;;0.50;;
43628;SDS011;56545;48.224;11.678;2022-09-19T05:07:04;4.03;;;0.70;;
43628;SDS011;56545;48.224;11.678;2022-09-19T05:09:31;6.35;;;0.70;;
43628;SDS011;56545;48.224;11.678;2022-09-19T05:11:57;4.05;;;0.82;;
43628;SDS011;56545;48.224;11.678;2022-09-19T05:14:24;7.28;;;0.60;;
43628;SDS011;56545;48.224;11.678;2022-09-19T05:16:54;3.17;;;0.57;;
43628;SDS011;56545;48.224;11.678;2022-09-19T05:19:19;6.25;;;0.80;;
43628;SDS011;56545;48.224;11.678;2022-09-19T05:21:47;6.60;;;0.70;;
43628;SDS011;56545;48.224;11.678;2022-09-19T05:24:14;6.00;;;0.70;;
43628;SDS011;56545;48.224;11.678;2022-09-19T05:26:41;4.32;;;0.70;;
43628;SDS011;56545;48.224;11.678;2022-09-19T05:29:07;6.90;;;0.90;;
43628;SDS011;56545;48.224;11.678;2022-09-19T05:31:33;6.10;;;0.65;;
43628;SDS011;56545;48.224;11.678;2022-09-19T05:34:00;2.78;;;0.60;;
43628;SDS011;56545;48.224;11.678;2022-09-19T05:36:27;4.47;;;0.70;;
43628;SDS011;56545;48.224;11.678;2022-09-19T05:38:53;4.32;;;0.80;;
43628;SDS011;56545;48.224;11.678;2022-09-19T05:41:19;4.15;;;1.02;;
43628;SDS011;56545;48.224;11.678;2022-09-19T05:43:45;6.57;;;1.20;;
43628;SDS011;56545;48.224;11.678;2022-09-19T05:46:11;5.65;;;1.08;;
43628;SDS011;56545;48.224;11.678;2022-09-19T05:48:37;6.28;;;1.63;;
43628;SDS011;56545;48.224;11.678;2022-09-19T05:51:03;7.68;;;1.42;;
43628;SDS011;56545;48.224;11.678;2022-09-19T05:53:29;6.30;;;1.20;;
43628;SDS011;56545;48.224;11.678;2022-09-19T05:56:14;5.22;;;0.80;;
43628;SDS011;56545;48.224;11.678;2022-09-19T05:58:40;7.47;;;1.17;;
43628;SDS011;56545;48.224;11.678;2022-09-19T06:01:06;5.57;;;0.98;;
43628;SDS011;56545;48.224;11.678;2022-09-19T06:03:34;7.78;;;1.05;;
43628;SDS011;56545;48.224;11.678;2022-09-19T06:06:00;5.72;;;1.10;;
43628;SDS011;56545;48.224;11.678;2022-09-19T06:08:30;8.27;;;1.10;;
43628;SDS011;56545;48.224;11.678;2022-09-19T06:10:59;9.50;;;1.10;;
43628;SDS011;56545;48.224;11.678;2022-09-19T06:13:26;8.60;;;1.83;;
43628;SDS011;56545;48.224;11.678;2022-09-19T06:16:12;7.28;;;1.50;;
43628;SDS011;56545;48.224;11.678;2022-09-19T06:18:38;10.50;;;2.83;;
43628;SDS011;56545;48.224;11.678;2022-09-19T06:21:04;13.95;;;5.10;;
43628;SDS011;56545;48.224;11.678;2022-09-19T06:23:30;7.40;;;1.40;;
43628;SDS011;56545;48.224;11.678;2022-09-19T06:25:56;6.78;;;1.35;;
43628;SDS011;56545;48.224;11.678;2022-09-19T06:28:22;7.43;;;1.38;;
43628;SDS011;56545;48.224;11.678;2022-09-19T06:30:47;5.55;;;1.33;;
43628;SDS011;56545;48.224;11.678;2022-09-19T06:33:13;6.40;;;1.30;;
43628;SDS011;56545;48.224;11.678;2022-09-19T06:35:40;6.35;;;1.40;;
43628;SDS011;56545;48.224;11.678;2022-09-19T06:38:06;6.25;;;1.40;;
43628;SDS011;56545;48.224;11.678;2022-09-19T06:40:33;5.50;;;1.08;;
43628;SDS011;56545;48.224;11.678;2022-09-19T06:43:04;6.60;;;1.40;;
43628;SDS011;56545;48.224;11.678;2022-09-19T06:45:34;4.30;;;1.10;;
43628;SDS011;56545;48.224;11.678;2022-09-19T06:48:05;9.15;;;1.40;;
43628;SDS011;56545;48.224;11.678;2022-09-19T06:50:32;6.35;;;1.27;;
43628;SDS011;56545;48.224;11.678;2022-09-19T06:52:59;7.97;;;1.98;;
43628;SDS011;56545;48.224;11.678;2022-09-19T06:55:24;12.10;;;1.70;;
43628;SDS011;56545;48.224;11.678;2022-09-19T06:57:59;8.50;;;1.60;;
43628;SDS011;56545;48.224;11.678;2022-09-19T07:00:28;7.60;;;1.35;;
43628;SDS011;56545;48.224;11.678;2022-09-19T07:03:14;7.90;;;1.17;;
43628;SDS011;56545;48.224;11.678;2022-09-19T07:05:41;5.63;;;1.25;;
43628;SDS011;56545;48.224;11.678;2022-09-19T07:08:09;6.55;;;1.20;;
43628;SDS011;56545;48.224;11.678;2022-09-19T07:10:38;7.13;;;1.35;;
43628;SDS011;56545;48.224;11.678;2022-09-19T07:13:05;8.82;;;2.20;;
43628;SDS011;56545;48.224;11.678;2022-09-19T07:15:33;7.65;;;1.50;;
43628;SDS011;56545;48.224;11.678;2022-09-19T07:18:00;6.82;;;1.38;;
43628;SDS011;56545;48.224;11.678;2022-09-19T07:20:27;6.43;;;1.15;;
43628;SDS011;56545;48.224;11.678;2022-09-19T07:23:04;8.75;;;1.27;;
43628;SDS011;56545;48.224;11.678;2022-09-19T07:25:38;10.60;;;1.42;;
43628;SDS011;56545;48.224;11.678;2022-09-19T07:28:05;7.15;;;1.15;;
43628;SDS011;56545;48.224;11.678;2022-09-19T07:30:34;8.20;;;1.48;;
43628;SDS011;56545;48.224;11.678;2022-09-19T07:33:01;13.30;;;1.50;;
43628;SDS011;56545;48.224;11.678;2022-09-19T07:35:30;6.70;;;1.20;;
43628;SDS011;56545;48.224;11.678;2022-09-19T07:37:59;9.93;;;1.77;;
43628;SDS011;56545;48.224;11.678;2022-09-19T07:40:26;6.78;;;1.23;;
43628;SDS011;56545;48.224;11.678;2022-09-19T07:42:52;8.60;;;1.10;;
43628;SDS011;56545;48.224;11.678;2022-09-19T07:45:29;8.38;;;1.30;;
43628;SDS011;56545;48.224;11.678;2022-09-19T07:47:58;6.32;;;1.17;;
43628;SDS011;56545;48.224;11.678;2022-09-19T07:50:24;8.75;;;1.20;;
43628;SDS011;56545;48.224;11.678;2022-09-19T07:53:00;6.80;;;1.27;;
43628;SDS011;56545;48.224;11.678;2022-09-19T07:55:30;5.82;;;1.10;;
43628;SDS011;56545;48.224;11.678;2022-09-19T07:57:58;6.65;;;1.40;;
43628;SDS011;56545;48.224;11.678;2022-09-19T08:00:25;10.30;;;1.48;;
43628;SDS011;56545;48.224;11.678;2022-09-19T08:02:56;6.97;;;1.70;;
43628;SDS011;56545;48.224;11.678;2022-09-19T08:05:27;6.28;;;1.35;;
43628;SDS011;56545;48.224;11.678;2022-09-19T08:07:54;7.13;;;1.38;;
43628;SDS011;56545;48.224;11.678;2022-09-19T08:10:22;6.13;;;1.52;;
43628;SDS011;56545;48.224;11.678;2022-09-19T08:12:48;6.30;;;1.35;;
43628;SDS011;56545;48.224;11.678;2022-09-19T08:15:15;8.88;;;1.55;;
43628;SDS011;56545;48.224;11.678;2022-09-19T08:20:30;7.85;;;1.20;;
43628;SDS011;56545;48.224;11.678;2022-09-19T08:23:02;5.90;;;1.25;;
43628;SDS011;56545;48.224;11.678;2022-09-19T08:25:31;7.50;;;1.45;;
43628;SDS011;56545;48.224;11.678;2022-09-19T08:27:58;6.53;;;1.20;;
43628;SDS011;56545;48.224;11.678;2022-09-19T08:30:25;5.45;;;1.20;;
43628;SDS011;56545;48.224;11.678;2022-09-19T08:32:52;9.07;;;1.80;;
43628;SDS011;56545;48.224;11.678;2022-09-19T08:35:20;6.13;;;1.17;;
43628;SDS011;56545;48.224;11.678;2022-09-19T08:37:47;4.68;;;1.17;;
43628;SDS011;56545;48.224;11.678;2022-09-19T08:40:23;7.38;;;1.65;;
43628;SDS011;56545;48.224;11.678;2022-09-19T08:54:17;6.63;;;1.67;;
43628;SDS011;56545;48.224;11.678;2022-09-19T08:56:46;7.38;;;1.48;;
43628;SDS011;56545;48.224;11.678;2022-09-19T08:59:16;7.35;;;1.10;;
43628;SDS011;56545;48.224;11.678;2022-09-19T09:01:45;10.80;;;1.50;;
43628;SDS011;56545;48.224;11.678;2022-09-19T09:09:40;7.03;;;1.15;;
43628;SDS011;56545;48.224;11.678;2022-09-19T09:12:30;6.80;;;1.27;;
43628;SDS011;56545;48.224;11.678;2022-09-19T09:15:32;6.68;;;1.40;;
43628;SDS011;56545;48.224;11.678;2022-09-19T09:23:31;7.93;;;1.50;;
43628;SDS011;56545;48.224;11.678;2022-09-19T09:26:09;6.65;;;1.05;;
43628;SDS011;56545;48.224;11.678;2022-09-19T09:28:49;5.32;;;1.10;;
43628;SDS011;56545;48.224;11.678;2022-09-19T09:31:25;8.07;;;1.20;;
43628;SDS011;56545;48.224;11.678;2022-09-19T09:33:57;7.28;;;1.20;;
43628;SDS011;56545;48.224;11.678;2022-09-19T09:36:32;9.20;;;1.50;;
43628;SDS011;56545;48.224;11.678;2022-09-19T09:39:05;6.63;;;1.13;;
43628;SDS011;56545;48.224;11.678;2022-09-19T09:41:46;5.68;;;1.10;;
43628;SDS011;56545;48.224;11.678;2022-09-19T09:47:11;5.63;;;1.10;;
43628;SDS011;56545;48.224;11.678;2022-09-19T09:49:57;8.73;;;1.45;;
43628;SDS011;56545;48.224;11.678;2022-09-19T09:55:23;7.80;;;1.45;;
43628;SDS011;56545;48.224;11.678;2022-09-19T09:58:25;5.97;;;1.10;;
43628;SDS011;56545;48.224;11.678;2022-09-19T10:01:14;5.45;;;1.15;;
43628;SDS011;56545;48.224;11.678;2022-09-19T10:04:36;8.23;;;1.35;;
43628;SDS011;56545;48.224;11.678;2022-09-19T10:09:56;7.95;;;1.58;;
43628;SDS011;56545;48.224;11.678;2022-09-19T10:12:30;5.82;;;1.08;;
43628;SDS011;56545;48.224;11.678;2022-09-19T10:15:12;6.25;;;1.30;;
43628;SDS011;56545;48.224;11.678;2022-09-19T10:17:43;7.47;;;1.25;;
43628;SDS011;56545;48.224;11.678;2022-09-19T10:20:16;5.35;;;1.00;;
43628;SDS011;56545;48.224;11.678;2022-09-19T10:22:47;4.97;;;1.20;;
43628;SDS011;56545;48.224;11.678;2022-09-19T10:25:14;5.45;;;1.13;;
43628;SDS011;56545;48.224;11.678;2022-09-19T10:27:41;4.93;;;1.10;;
43628;SDS011;56545;48.224;11.678;2022-09-19T10:30:20;5.38;;;1.20;;
43628;SDS011;56545;48.224;11.678;2022-09-19T10:32:50;6.53;;;1.27;;
43628;SDS011;56545;48.224;11.678;2022-09-19T10:38:00;8.40;;;1.52;;
43628;SDS011;56545;48.224;11.678;2022-09-19T10:40:29;8.30;;;1.70;;
43628;SDS011;56545;48.224;11.678;2022-09-19T10:42:56;9.27;;;1.25;;
43628;SDS011;56545;48.224;11.678;2022-09-19T10:45:26;4.55;;;0.90;;
43628;SDS011;56545;48.224;11.678;2022-09-19T10:47:57;4.75;;;1.13;;
43628;SDS011;56545;48.224;11.678;2022-09-19T10:50:27;7.35;;;1.52;;
43628;SDS011;56545;48.224;11.678;2022-09-19T10:53:04;6.50;;;1.48;;
43628;SDS011;56545;48.224;11.678;2022-09-19T10:55:30;8.32;;;1.25;;
43628;SDS011;56545;48.224;11.678;2022-09-19T10:58:02;5.75;;;1.10;;
43628;SDS011;56545;48.224;11.678;2022-09-19T11:00:31;8.77;;;1.45;;
43628;SDS011;56545;48.224;11.678;2022-09-19T11:08:48;5.00;;;1.13;;
43628;SDS011;56545;48.224;11.678;2022-09-19T11:25:04;5.10;;;1.60;;
43628;SDS011;56545;48.224;11.678;2022-09-19T11:27:44;6.75;;;1.40;;
43628;SDS011;56545;48.224;11.678;2022-09-19T11:30:30;6.38;;;1.42;;
43628;SDS011;56545;48.224;11.678;2022-09-19T11:35:59;4.72;;;1.23;;
43628;SDS011;56545;48.224;11.678;2022-09-19T11:38:43;5.82;;;1.90;;
43628;SDS011;56545;48.224;11.678;2022-09-19T11:44:04;6.22;;;1.25;;
43628;SDS011;56545;48.224;11.678;2022-09-19T11:47:08;5.75;;;1.25;;
43628;SDS011;56545;48.224;11.678;2022-09-19T11:52:22;4.57;;;1.10;;
43628;SDS011;56545;48.224;11.678;2022-09-19T11:55:04;6.10;;;1.48;;
43628;SDS011;56545;48.224;11.678;2022-09-19T11:58:19;5.50;;;1.30;;
43628;SDS011;56545;48.224;11.678;2022-09-19T12:04:02;7.65;;;1.00;;
43628;SDS011;56545;48.224;11.678;2022-09-19T12:06:47;7.18;;;1.10;;
43628;SDS011;56545;48.224;11.678;2022-09-19T12:09:24;4.13;;;1.13;;
43628;SDS011;56545;48.224;11.678;2022-09-19T12:12:00;7.07;;;1.50;;
43628;SDS011;56545;48.224;11.678;2022-09-19T12:14:34;7.00;;;1.23;;
43628;SDS011;56545;48.224;11.678;2022-09-19T12:17:14;4.85;;;1.00;;
43628;SDS011;56545;48.224;11.678;2022-09-19T12:19:56;5.95;;;1.10;;
43628;SDS011;56545;48.224;11.678;2022-09-19T12:22:37;3.65;;;0.90;;
43628;SDS011;56545;48.224;11.678;2022-09-19T12:25:15;3.42;;;1.00;;
43628;SDS011;56545;48.224;11.678;2022-09-19T12:27:52;4.93;;;1.20;;
43628;SDS011;56545;48.224;11.678;2022-09-19T12:30:28;4.82;;;1.13;;
43628;SDS011;56545;48.224;11.678;2022-09-19T12:33:03;4.00;;;0.93;;
43628;SDS011;56545;48.224;11.678;2022-09-19T12:35:49;4.95;;;0.95;;
43628;SDS011;56545;48.224;11.678;2022-09-19T12:38:22;6.07;;;1.20;;
43628;SDS011;56545;48.224;11.678;2022-09-19T12:46:38;5.05;;;0.70;;
43628;SDS011;56545;48.224;11.678;2022-09-19T12:52:13;4.05;;;0.80;;
43628;SDS011;56545;48.224;11.678;2022-09-19T12:54:55;5.32;;;1.25;;
43628;SDS011;56545;48.224;11.678;2022-09-19T12:57:47;3.20;;;0.80;;
43628;SDS011;56545;48.224;11.678;2022-09-19T13:00:18;5.00;;;0.80;;
43628;SDS011;56545;48.224;11.678;2022-09-19T13:02:50;2.33;;;0.82;;
43628;SDS011;56545;48.224;11.678;2022-09-19T13:05:38;3.45;;;0.73;;
43628;SDS011;56545;48.224;11.678;2022-09-19T13:08:12;4.63;;;0.90;;
43628;SDS011;56545;48.224;11.678;2022-09-19T13:13:33;4.32;;;0.65;;
43628;SDS011;56545;48.224;11.678;2022-09-19T13:16:11;6.78;;;1.98;;
43628;SDS011;56545;48.224;11.678;2022-09-19T13:18:42;4.85;;;1.30;;
43628;SDS011;56545;48.224;11.678;2022-09-19T13:21:37;4.05;;;0.90;;
43628;SDS011;56545;48.224;11.678;2022-09-19T13:24:35;5.03;;;0.80;;
43628;SDS011;56545;48.224;11.678;2022-09-19T13:27:07;5.43;;;1.00;;
43628;SDS011;56545;48.224;11.678;2022-09-19T13:32:29;3.97;;;0.93;;
43628;SDS011;56545;48.224;11.678;2022-09-19T13:35:18;5.15;;;1.05;;
43628;SDS011;56545;48.224;11.678;2022-09-19T13:37:48;7.28;;;1.25;;
43628;SDS011;56545;48.224;11.678;2022-09-19T13:48:03;4.80;;;0.93;;
43628;SDS011;56545;48.224;11.678;2022-09-19T13:50:56;3.90;;;0.70;;
43628;SDS011;56545;48.224;11.678;2022-09-19T13:53:35;4.22;;;1.05;;
43628;SDS011;56545;48.224;11.678;2022-09-19T13:56:02;5.82;;;1.23;;
43628;SDS011;56545;48.224;11.678;2022-09-19T13:58:43;4.40;;;1.00;;
43628;SDS011;56545;48.224;11.678;2022-09-19T14:03:39;3.78;;;1.10;;
43628;SDS011;56545;48.224;11.678;2022-09-19T14:06:14;5.18;;;1.00;;
43628;SDS011;56545;48.224;11.678;2022-09-19T14:11:41;4.07;;;0.90;;
43628;SDS011;56545;48.224;11.678;2022-09-19T14:19:44;4.20;;;1.30;;
43628;SDS011;56545;48.224;11.678;2022-09-19T14:25:17;3.58;;;0.93;;
43628;SDS011;56545;48.224;11.678;2022-09-19T14:27:54;3.78;;;0.85;;
43628;SDS011;56545;48.224;11.678;2022-09-19T14:36:43;3.47;;;1.00;;
43628;SDS011;56545;48.224;11.678;2022-09-19T14:47:30;2.85;;;0.80;;
43628;SDS011;56545;48.224;11.678;2022-09-19T14:50:02;1.27;;;0.50;;
43628;SDS011;56545;48.224;11.678;2022-09-19T14:52:38;4.57;;;0.77;;
43628;SDS011;56545;48.224;11.678;2022-09-19T14:55:13;3.38;;;0.80;;
43628;SDS011;56545;48.224;11.678;2022-09-19T14:57:47;2.53;;;0.65;;
43628;SDS011;56545;48.224;11.678;2022-09-19T15:00:22;3.35;;;0.77;;
43628;SDS011;56545;48.224;11.678;2022-09-19T15:02:53;5.10;;;1.00;;
43628;SDS011;56545;48.224;11.678;2022-09-19T15:05:29;5.00;;;0.93;;
43628;SDS011;56545;48.224;11.678;2022-09-19T15:11:01;4.47;;;0.98;;
43628;SDS011;56545;48.224;11.678;2022-09-19T15:13:29;3.03;;;0.90;;
43628;SDS011;56545;48.224;11.678;2022-09-19T15:16:00;3.25;;;0.80;;
43628;SDS011;56545;48.224;11.678;2022-09-19T15:21:08;3.65;;;0.70;;
43628;SDS011;56545;48.224;11.678;2022-09-19T15:23:39;4.50;;;0.73;;
43628;SDS011;56545;48.224;11.678;2022-09-19T15:26:08;2.25;;;0.70;;
43628;SDS011;56545;48.224;11.678;2022-09-19T15:28:58;2.38;;;0.60;;
43628;SDS011;56545;48.224;11.678;2022-09-19T15:31:42;3.28;;;0.80;;
43628;SDS011;56545;48.224;11.678;2022-09-19T15:34:12;3.80;;;0.77;;
43628;SDS011;56545;48.224;11.678;2022-09-19T15:36:42;2.47;;;0.57;;
43628;SDS011;56545;48.224;11.678;2022-09-19T15:39:10;2.58;;;0.70;;
43628;SDS011;56545;48.224;11.678;2022-09-19T15:41:38;2.05;;;0.68;;
43628;SDS011;56545;48.224;11.678;2022-09-19T15:44:05;4.30;;;1.00;;
43628;SDS011;56545;48.224;11.678;2022-09-19T15:46:45;3.03;;;1.00;;
43628;SDS011;56545;48.224;11.678;2022-09-19T15:49:20;3.47;;;0.90;;
43628;SDS011;56545;48.224;11.678;2022-09-19T15:52:05;4.40;;;0.90;;
43628;SDS011;56545;48.224;11.678;2022-09-19T15:54:59;3.25;;;0.68;;
43628;SDS011;56545;48.224;11.678;2022-09-19T15:57:32;4.57;;;0.60;;
43628;SDS011;56545;48.224;11.678;2022-09-19T16:02:44;3.90;;;0.82;;
43628;SDS011;56545;48.224;11.678;2022-09-19T16:05:31;3.92;;;0.90;;
43628;SDS011;56545;48.224;11.678;2022-09-19T16:07:59;13.52;;;7.90;;
43628;SDS011;56545;48.224;11.678;2022-09-19T16:10:46;5.72;;;2.30;;
43628;SDS011;56545;48.224;11.678;2022-09-19T16:13:35;3.05;;;0.90;;
43628;SDS011;56545;48.224;11.678;2022-09-19T16:16:04;2.50;;;0.82;;
43628;SDS011;56545;48.224;11.678;2022-09-19T16:18:51;3.78;;;0.68;;
43628;SDS011;56545;48.224;11.678;2022-09-19T16:21:37;2.67;;;0.90;;
43628;SDS011;56545;48.224;11.678;2022-09-19T16:24:12;5.28;;;1.30;;
43628;SDS011;56545;48.224;11.678;2022-09-19T16:26:41;3.30;;;0.90;;
43628;SDS011;56545;48.224;11.678;2022-09-19T16:29:09;3.05;;;0.90;;
43628;SDS011;56545;48.224;11.678;2022-09-19T16:31:36;3.13;;;1.20;;
43628;SDS011;56545;48.224;11.678;2022-09-19T16:36:41;4.43;;;1.02;;
43628;SDS011;56545;48.224;11.678;2022-09-19T16:46:47;9.73;;;3.97;;
43628;SDS011;56545;48.224;11.678;2022-09-19T16:49:17;5.47;;;2.05;;
43628;SDS011;56545;48.224;11.678;2022-09-19T16:51:43;5.18;;;1.90;;
43628;SDS011;56545;48.224;11.678;2022-09-19T16:54:14;6.05;;;1.50;;
43628;SDS011;56545;48.224;11.678;2022-09-19T16:56:41;6.97;;;1.60;;
43628;SDS011;56545;48.224;11.678;2022-09-19T16:59:10;8.15;;;2.53;;
43628;SDS011;56545;48.224;11.678;2022-09-19T17:01:38;10.02;;;2.80;;
43628;SDS011;56545;48.224;11.678;2022-09-19T17:04:04;7.90;;;2.78;;
43628;SDS011;56545;48.224;11.678;2022-09-19T17:06:31;7.68;;;2.90;;
43628;SDS011;56545;48.224;11.678;2022-09-19T17:08:57;7.15;;;2.50;;
43628;SDS011;56545;48.224;11.678;2022-09-19T17:11:23;6.75;;;3.25;;
43628;SDS011;56545;48.224;11.678;2022-09-19T17:13:49;9.07;;;3.30;;
43628;SDS011;56545;48.224;11.678;2022-09-19T17:16:15;7.55;;;3.20;;
43628;SDS011;56545;48.224;11.678;2022-09-19T17:18:43;11.05;;;3.30;;
43628;SDS011;56545;48.224;11.678;2022-09-19T17:21:11;4.95;;;1.88;;
43628;SDS011;56545;48.224;11.678;2022-09-19T17:23:38;6.00;;;1.50;;
43628;SDS011;56545;48.224;11.678;2022-09-19T17:26:04;11.35;;;6.32;;
43628;SDS011;56545;48.224;11.678;2022-09-19T17:28:31;5.28;;;1.77;;
43628;SDS011;56545;48.224;11.678;2022-09-19T17:31:00;4.22;;;1.80;;
43628;SDS011;56545;48.224;11.678;2022-09-19T17:33:27;4.28;;;1.50;;
43628;SDS011;56545;48.224;11.678;2022-09-19T17:35:54;4.07;;;1.20;;
43628;SDS011;56545;48.224;11.678;2022-09-19T17:38:25;4.43;;;1.20;;
43628;SDS011;56545;48.224;11.678;2022-09-19T17:40:52;4.43;;;1.60;;